sensor_id;sensor_type;location;lat;lon;timestamp;P1;durP1;ratioP1;P2;durP2;ratioP2
50549;SDS011;36505;52.512;13.460;2022-08-07T00:01:06;3.83;;;1.85;;
50549;SDS011;36505;52.512;13.460;2022-08-07T00:03:31;3.65;;;1.63;;
50549;SDS011;36505;52.512;13.460;2022-08-07T00:05:57;4.13;;;1.98;;
50549;SDS011;36505;52.512;13.460;2022-08-07T00:08:23;5.00;;;2.10;;
50549;SDS011;36505;52.512;13.460;2022-08-07T00:10:49;4.63;;;2.10;;
50549;SDS011;36505;52.512;13.460;2022-08-07T00:13:14;4.93;;;2.00;;
50549;SDS011;36505;52.512;13.460;2022-08-07T00:15:40;5.88;;;2.45;;
50549;SDS011;36505;52.512;13.460;2022-08-07T00:18:06;8.02;;;3.08;;
50549;SDS011;36505;52.512;13.460;2022-08-07T00:20:33;4.50;;;2.60;;
50549;SDS011;36505;52.512;13.460;2022-08-07T00:22:59;4.40;;;2.80;;
50549;SDS011;36505;52.512;13.460;2022-08-07T00:25:24;3.63;;;2.50;;
50549;SDS011;36505;52.512;13.460;2022-08-07T00:27:50;6.18;;;2.67;;
50549;SDS011;36505;52.512;13.460;2022-08-07T00:30:16;6.00;;;2.70;;
50549;SDS011;36505;52.512;13.460;2022-08-07T00:32:41;4.55;;;2.60;;
50549;SDS011;36505;52.512;13.460;2022-08-07T00:35:07;9.82;;;2.85;;
50549;SDS011;36505;52.512;13.460;2022-08-07T00:37:32;6.28;;;2.67;;
50549;SDS011;36505;52.512;13.460;2022-08-07T00:39:58;7.78;;;2.70;;
50549;SDS011;36505;52.512;13.460;2022-08-07T00:42:23;4.28;;;2.47;;
50549;SDS011;36505;52.512;13.460;2022-08-07T00:44:48;6.03;;;2.05;;
50549;SDS011;36505;52.512;13.460;2022-08-07T00:47:14;10.77;;;2.50;;
50549;SDS011;36505;52.512;13.460;2022-08-07T00:49:39;4.03;;;2.17;;
50549;SDS011;36505;52.512;13.460;2022-08-07T00:52:05;3.13;;;1.80;;
50549;SDS011;36505;52.512;13.460;2022-08-07T00:54:32;5.00;;;2.30;;
50549;SDS011;36505;52.512;13.460;2022-08-07T00:56:57;2.78;;;1.70;;
50549;SDS011;36505;52.512;13.460;2022-08-07T00:59:23;3.55;;;2.00;;
50549;SDS011;36505;52.512;13.460;2022-08-07T01:01:48;4.07;;;2.10;;
50549;SDS011;36505;52.512;13.460;2022-08-07T01:04:15;5.35;;;2.25;;
50549;SDS011;36505;52.512;13.460;2022-08-07T01:06:41;3.63;;;1.95;;
50549;SDS011;36505;52.512;13.460;2022-08-07T01:09:07;3.97;;;1.90;;
50549;SDS011;36505;52.512;13.460;2022-08-07T01:11:32;3.05;;;1.80;;
50549;SDS011;36505;52.512;13.460;2022-08-07T01:13:58;2.53;;;1.65;;
50549;SDS011;36505;52.512;13.460;2022-08-07T01:16:24;3.70;;;1.60;;
50549;SDS011;36505;52.512;13.460;2022-08-07T01:18:50;7.15;;;2.35;;
50549;SDS011;36505;52.512;13.460;2022-08-07T01:21:16;2.63;;;1.73;;
50549;SDS011;36505;52.512;13.460;2022-08-07T01:23:45;2.67;;;1.90;;
50549;SDS011;36505;52.512;13.460;2022-08-07T01:26:12;5.35;;;1.92;;
50549;SDS011;36505;52.512;13.460;2022-08-07T01:28:39;6.63;;;2.42;;
50549;SDS011;36505;52.512;13.460;2022-08-07T01:31:06;3.13;;;1.90;;
50549;SDS011;36505;52.512;13.460;2022-08-07T01:33:33;6.32;;;2.30;;
50549;SDS011;36505;52.512;13.460;2022-08-07T01:35:59;3.50;;;1.58;;
50549;SDS011;36505;52.512;13.460;2022-08-07T01:38:26;4.82;;;1.95;;
50549;SDS011;36505;52.512;13.460;2022-08-07T01:40:53;4.90;;;1.90;;
50549;SDS011;36505;52.512;13.460;2022-08-07T01:43:21;3.13;;;1.60;;
50549;SDS011;36505;52.512;13.460;2022-08-07T01:45:48;7.65;;;2.42;;
50549;SDS011;36505;52.512;13.460;2022-08-07T01:48:14;5.18;;;2.10;;
50549;SDS011;36505;52.512;13.460;2022-08-07T01:50:39;3.30;;;1.88;;
50549;SDS011;36505;52.512;13.460;2022-08-07T01:53:06;4.10;;;2.33;;
50549;SDS011;36505;52.512;13.460;2022-08-07T01:55:34;4.35;;;2.22;;
50549;SDS011;36505;52.512;13.460;2022-08-07T01:58:12;5.72;;;1.88;;
50549;SDS011;36505;52.512;13.460;2022-08-07T02:00:39;3.75;;;1.88;;
50549;SDS011;36505;52.512;13.460;2022-08-07T02:03:08;3.70;;;2.05;;
50549;SDS011;36505;52.512;13.460;2022-08-07T02:05:38;5.28;;;1.90;;
50549;SDS011;36505;52.512;13.460;2022-08-07T02:08:09;2.95;;;1.67;;
50549;SDS011;36505;52.512;13.460;2022-08-07T02:10:37;4.93;;;2.20;;
50549;SDS011;36505;52.512;13.460;2022-08-07T02:13:04;5.50;;;2.15;;
50549;SDS011;36505;52.512;13.460;2022-08-07T02:15:31;3.38;;;1.85;;
50549;SDS011;36505;52.512;13.460;2022-08-07T02:17:58;5.85;;;2.05;;
50549;SDS011;36505;52.512;13.460;2022-08-07T02:20:25;3.00;;;1.83;;
50549;SDS011;36505;52.512;13.460;2022-08-07T02:22:52;8.68;;;2.28;;
50549;SDS011;36505;52.512;13.460;2022-08-07T02:25:22;4.20;;;2.40;;
50549;SDS011;36505;52.512;13.460;2022-08-07T02:27:49;5.65;;;2.40;;
50549;SDS011;36505;52.512;13.460;2022-08-07T02:30:15;3.47;;;2.17;;
50549;SDS011;36505;52.512;13.460;2022-08-07T02:32:41;5.15;;;2.17;;
50549;SDS011;36505;52.512;13.460;2022-08-07T02:35:08;8.25;;;2.53;;
50549;SDS011;36505;52.512;13.460;2022-08-07T02:37:35;4.03;;;2.10;;
50549;SDS011;36505;52.512;13.460;2022-08-07T02:40:04;4.18;;;1.83;;
50549;SDS011;36505;52.512;13.460;2022-08-07T02:42:31;3.45;;;2.13;;
50549;SDS011;36505;52.512;13.460;2022-08-07T02:44:59;6.72;;;2.50;;
50549;SDS011;36505;52.512;13.460;2022-08-07T02:47:26;5.65;;;1.90;;
50549;SDS011;36505;52.512;13.460;2022-08-07T02:49:52;4.95;;;2.30;;
50549;SDS011;36505;52.512;13.460;2022-08-07T02:52:20;8.35;;;2.38;;
50549;SDS011;36505;52.512;13.460;2022-08-07T02:54:51;3.90;;;1.83;;
50549;SDS011;36505;52.512;13.460;2022-08-07T02:57:18;3.40;;;1.90;;
50549;SDS011;36505;52.512;13.460;2022-08-07T02:59:45;3.33;;;2.10;;
50549;SDS011;36505;52.512;13.460;2022-08-07T03:02:14;5.80;;;2.28;;
50549;SDS011;36505;52.512;13.460;2022-08-07T03:04:41;6.55;;;2.10;;
50549;SDS011;36505;52.512;13.460;2022-08-07T03:07:10;4.38;;;2.00;;
50549;SDS011;36505;52.512;13.460;2022-08-07T03:09:36;7.60;;;2.83;;
50549;SDS011;36505;52.512;13.460;2022-08-07T03:12:05;4.68;;;2.25;;
50549;SDS011;36505;52.512;13.460;2022-08-07T03:14:31;4.22;;;1.92;;
50549;SDS011;36505;52.512;13.460;2022-08-07T03:17:00;6.93;;;1.88;;
50549;SDS011;36505;52.512;13.460;2022-08-07T03:19:26;7.65;;;2.08;;
50549;SDS011;36505;52.512;13.460;2022-08-07T03:21:52;7.70;;;2.70;;
50549;SDS011;36505;52.512;13.460;2022-08-07T03:24:19;5.28;;;2.05;;
50549;SDS011;36505;52.512;13.460;2022-08-07T03:26:45;3.63;;;1.92;;
50549;SDS011;36505;52.512;13.460;2022-08-07T03:29:14;4.28;;;1.85;;
50549;SDS011;36505;52.512;13.460;2022-08-07T03:31:40;5.15;;;1.92;;
50549;SDS011;36505;52.512;13.460;2022-08-07T03:34:08;5.30;;;2.25;;
50549;SDS011;36505;52.512;13.460;2022-08-07T03:36:34;4.85;;;2.28;;
50549;SDS011;36505;52.512;13.460;2022-08-07T03:39:11;9.10;;;2.80;;
50549;SDS011;36505;52.512;13.460;2022-08-07T03:41:39;4.05;;;2.00;;
50549;SDS011;36505;52.512;13.460;2022-08-07T03:44:05;2.70;;;1.63;;
50549;SDS011;36505;52.512;13.460;2022-08-07T03:46:31;2.55;;;1.80;;
50549;SDS011;36505;52.512;13.460;2022-08-07T03:48:57;3.90;;;1.88;;
50549;SDS011;36505;52.512;13.460;2022-08-07T03:51:23;3.53;;;1.77;;
50549;SDS011;36505;52.512;13.460;2022-08-07T03:53:51;5.68;;;2.17;;
50549;SDS011;36505;52.512;13.460;2022-08-07T03:56:20;10.85;;;3.90;;
50549;SDS011;36505;52.512;13.460;2022-08-07T03:58:47;4.75;;;2.50;;
50549;SDS011;36505;52.512;13.460;2022-08-07T04:01:14;5.45;;;3.15;;
50549;SDS011;36505;52.512;13.460;2022-08-07T04:03:41;6.30;;;2.80;;
50549;SDS011;36505;52.512;13.460;2022-08-07T04:06:07;5.32;;;2.05;;
50549;SDS011;36505;52.512;13.460;2022-08-07T04:08:34;3.95;;;2.10;;
50549;SDS011;36505;52.512;13.460;2022-08-07T04:11:00;4.28;;;1.92;;
50549;SDS011;36505;52.512;13.460;2022-08-07T04:13:26;5.95;;;2.67;;
50549;SDS011;36505;52.512;13.460;2022-08-07T04:15:52;3.45;;;1.90;;
50549;SDS011;36505;52.512;13.460;2022-08-07T04:18:17;6.47;;;2.00;;
50549;SDS011;36505;52.512;13.460;2022-08-07T04:20:43;5.18;;;2.20;;
50549;SDS011;36505;52.512;13.460;2022-08-07T04:23:08;5.40;;;1.73;;
50549;SDS011;36505;52.512;13.460;2022-08-07T04:25:35;5.47;;;2.05;;
50549;SDS011;36505;52.512;13.460;2022-08-07T04:28:05;4.22;;;2.00;;
50549;SDS011;36505;52.512;13.460;2022-08-07T04:30:32;3.83;;;2.05;;
50549;SDS011;36505;52.512;13.460;2022-08-07T04:32:59;4.22;;;1.95;;
50549;SDS011;36505;52.512;13.460;2022-08-07T04:35:25;4.43;;;2.03;;
50549;SDS011;36505;52.512;13.460;2022-08-07T04:37:50;7.93;;;4.30;;
50549;SDS011;36505;52.512;13.460;2022-08-07T04:40:16;7.20;;;3.22;;
50549;SDS011;36505;52.512;13.460;2022-08-07T04:42:41;4.57;;;2.08;;
50549;SDS011;36505;52.512;13.460;2022-08-07T04:45:07;3.83;;;1.95;;
50549;SDS011;36505;52.512;13.460;2022-08-07T04:50:28;2.78;;;1.65;;
50549;SDS011;36505;52.512;13.460;2022-08-07T04:55:31;4.05;;;2.17;;
50549;SDS011;36505;52.512;13.460;2022-08-07T04:58:12;3.33;;;1.77;;
50549;SDS011;36505;52.512;13.460;2022-08-07T05:06:08;2.92;;;1.83;;
50549;SDS011;36505;52.512;13.460;2022-08-07T05:11:33;5.10;;;2.83;;
50549;SDS011;36505;52.512;13.460;2022-08-07T05:14:10;3.78;;;1.98;;
50549;SDS011;36505;52.512;13.460;2022-08-07T05:16:39;5.10;;;2.00;;
50549;SDS011;36505;52.512;13.460;2022-08-07T05:19:12;5.93;;;1.90;;
50549;SDS011;36505;52.512;13.460;2022-08-07T05:21:46;3.60;;;1.80;;
50549;SDS011;36505;52.512;13.460;2022-08-07T05:24:15;9.20;;;1.70;;
50549;SDS011;36505;52.512;13.460;2022-08-07T05:26:43;4.15;;;1.67;;
50549;SDS011;36505;52.512;13.460;2022-08-07T05:29:11;5.20;;;1.92;;
50549;SDS011;36505;52.512;13.460;2022-08-07T05:31:40;3.50;;;1.67;;
50549;SDS011;36505;52.512;13.460;2022-08-07T05:34:09;2.70;;;1.55;;
50549;SDS011;36505;52.512;13.460;2022-08-07T05:36:47;4.53;;;2.08;;
50549;SDS011;36505;52.512;13.460;2022-08-07T05:39:15;4.43;;;1.50;;
50549;SDS011;36505;52.512;13.460;2022-08-07T05:41:42;8.52;;;2.50;;
50549;SDS011;36505;52.512;13.460;2022-08-07T05:44:11;7.07;;;1.38;;
50549;SDS011;36505;52.512;13.460;2022-08-07T05:46:37;3.83;;;1.80;;
50549;SDS011;36505;52.512;13.460;2022-08-07T05:49:04;2.58;;;1.30;;
50549;SDS011;36505;52.512;13.460;2022-08-07T05:51:33;4.63;;;1.50;;
50549;SDS011;36505;52.512;13.460;2022-08-07T05:53:59;5.15;;;1.90;;
50549;SDS011;36505;52.512;13.460;2022-08-07T05:56:26;3.25;;;1.42;;
50549;SDS011;36505;52.512;13.460;2022-08-07T05:58:52;4.45;;;1.60;;
50549;SDS011;36505;52.512;13.460;2022-08-07T06:01:19;4.35;;;1.73;;
50549;SDS011;36505;52.512;13.460;2022-08-07T06:03:50;6.03;;;1.70;;
50549;SDS011;36505;52.512;13.460;2022-08-07T06:06:19;2.75;;;1.95;;
50549;SDS011;36505;52.512;13.460;2022-08-07T06:08:45;4.55;;;1.63;;
50549;SDS011;36505;52.512;13.460;2022-08-07T06:11:11;3.88;;;1.80;;
50549;SDS011;36505;52.512;13.460;2022-08-07T06:13:37;5.38;;;1.80;;
50549;SDS011;36505;52.512;13.460;2022-08-07T06:16:05;4.80;;;1.63;;
50549;SDS011;36505;52.512;13.460;2022-08-07T06:18:32;4.68;;;1.83;;
50549;SDS011;36505;52.512;13.460;2022-08-07T06:21:01;6.38;;;1.90;;
50549;SDS011;36505;52.512;13.460;2022-08-07T06:23:28;4.47;;;1.83;;
50549;SDS011;36505;52.512;13.460;2022-08-07T06:25:55;6.53;;;2.03;;
50549;SDS011;36505;52.512;13.460;2022-08-07T06:28:21;9.27;;;1.58;;
50549;SDS011;36505;52.512;13.460;2022-08-07T06:30:47;8.35;;;2.30;;
50549;SDS011;36505;52.512;13.460;2022-08-07T06:33:12;5.13;;;2.08;;
50549;SDS011;36505;52.512;13.460;2022-08-07T06:35:38;4.63;;;2.15;;
50549;SDS011;36505;52.512;13.460;2022-08-07T06:38:03;4.38;;;1.70;;
50549;SDS011;36505;52.512;13.460;2022-08-07T06:40:29;8.38;;;2.08;;
50549;SDS011;36505;52.512;13.460;2022-08-07T06:43:01;6.75;;;2.10;;
50549;SDS011;36505;52.512;13.460;2022-08-07T06:45:30;3.92;;;1.77;;
50549;SDS011;36505;52.512;13.460;2022-08-07T06:47:57;3.45;;;1.77;;
50549;SDS011;36505;52.512;13.460;2022-08-07T06:50:22;4.10;;;2.03;;
50549;SDS011;36505;52.512;13.460;2022-08-07T06:52:50;3.50;;;1.50;;
50549;SDS011;36505;52.512;13.460;2022-08-07T06:55:28;2.85;;;1.40;;
50549;SDS011;36505;52.512;13.460;2022-08-07T06:57:56;6.30;;;1.65;;
50549;SDS011;36505;52.512;13.460;2022-08-07T07:00:24;2.65;;;1.30;;
50549;SDS011;36505;52.512;13.460;2022-08-07T07:02:51;2.70;;;1.40;;
50549;SDS011;36505;52.512;13.460;2022-08-07T07:05:19;1.92;;;1.30;;
50549;SDS011;36505;52.512;13.460;2022-08-07T07:07:45;5.28;;;1.38;;
50549;SDS011;36505;52.512;13.460;2022-08-07T07:10:12;5.28;;;1.77;;
50549;SDS011;36505;52.512;13.460;2022-08-07T07:15:30;2.50;;;1.30;;
50549;SDS011;36505;52.512;13.460;2022-08-07T07:18:03;2.20;;;1.20;;
50549;SDS011;36505;52.512;13.460;2022-08-07T07:20:36;3.53;;;1.15;;
50549;SDS011;36505;52.512;13.460;2022-08-07T07:23:06;4.95;;;1.15;;
50549;SDS011;36505;52.512;13.460;2022-08-07T07:25:33;2.28;;;1.23;;
50549;SDS011;36505;52.512;13.460;2022-08-07T07:30:53;6.43;;;1.00;;
50549;SDS011;36505;52.512;13.460;2022-08-07T07:33:24;3.55;;;1.42;;
50549;SDS011;36505;52.512;13.460;2022-08-07T07:35:50;3.28;;;1.30;;
50549;SDS011;36505;52.512;13.460;2022-08-07T07:38:21;4.15;;;1.25;;
50549;SDS011;36505;52.512;13.460;2022-08-07T07:40:53;3.05;;;1.10;;
50549;SDS011;36505;52.512;13.460;2022-08-07T07:43:22;1.98;;;1.25;;
50549;SDS011;36505;52.512;13.460;2022-08-07T07:45:50;6.45;;;1.45;;
50549;SDS011;36505;52.512;13.460;2022-08-07T07:48:18;2.20;;;1.23;;
50549;SDS011;36505;52.512;13.460;2022-08-07T07:50:45;4.57;;;1.20;;
50549;SDS011;36505;52.512;13.460;2022-08-07T07:53:12;3.38;;;1.13;;
50549;SDS011;36505;52.512;13.460;2022-08-07T07:55:40;2.05;;;1.20;;
50549;SDS011;36505;52.512;13.460;2022-08-07T07:58:06;3.42;;;1.02;;
50549;SDS011;36505;52.512;13.460;2022-08-07T08:00:32;5.78;;;1.08;;
50549;SDS011;36505;52.512;13.460;2022-08-07T08:03:00;2.10;;;1.13;;
50549;SDS011;36505;52.512;13.460;2022-08-07T08:05:29;3.38;;;1.13;;
50549;SDS011;36505;52.512;13.460;2022-08-07T08:07:55;1.30;;;0.90;;
50549;SDS011;36505;52.512;13.460;2022-08-07T08:10:20;5.30;;;1.02;;
50549;SDS011;36505;52.512;13.460;2022-08-07T08:12:47;5.75;;;1.23;;
50549;SDS011;36505;52.512;13.460;2022-08-07T08:15:14;1.27;;;1.00;;
50549;SDS011;36505;52.512;13.460;2022-08-07T08:17:40;1.92;;;1.30;;
50549;SDS011;36505;52.512;13.460;2022-08-07T08:20:07;1.92;;;0.90;;
50549;SDS011;36505;52.512;13.460;2022-08-07T08:22:35;4.80;;;1.67;;
50549;SDS011;36505;52.512;13.460;2022-08-07T08:25:23;5.82;;;1.30;;
50549;SDS011;36505;52.512;13.460;2022-08-07T08:28:11;4.88;;;1.10;;
50549;SDS011;36505;52.512;13.460;2022-08-07T08:30:41;9.13;;;1.60;;
50549;SDS011;36505;52.512;13.460;2022-08-07T08:33:09;2.30;;;1.02;;
50549;SDS011;36505;52.512;13.460;2022-08-07T08:38:06;4.90;;;2.30;;
50549;SDS011;36505;52.512;13.460;2022-08-07T08:40:37;5.97;;;1.60;;
50549;SDS011;36505;52.512;13.460;2022-08-07T08:43:16;6.20;;;1.83;;
50549;SDS011;36505;52.512;13.460;2022-08-07T08:45:50;5.10;;;1.20;;
50549;SDS011;36505;52.512;13.460;2022-08-07T08:50:59;2.55;;;1.30;;
50549;SDS011;36505;52.512;13.460;2022-08-07T08:53:51;4.47;;;1.58;;
50549;SDS011;36505;52.512;13.460;2022-08-07T09:11:23;4.82;;;1.10;;
50549;SDS011;36505;52.512;13.460;2022-08-07T09:14:17;2.90;;;1.30;;
50549;SDS011;36505;52.512;13.460;2022-08-07T09:22:14;3.30;;;1.08;;
50549;SDS011;36505;52.512;13.460;2022-08-07T09:24:58;2.05;;;1.23;;
50549;SDS011;36505;52.512;13.460;2022-08-07T09:27:32;2.17;;;0.90;;
50549;SDS011;36505;52.512;13.460;2022-08-07T09:30:10;3.85;;;1.10;;
50549;SDS011;36505;52.512;13.460;2022-08-07T09:38:23;2.42;;;1.00;;
50549;SDS011;36505;52.512;13.460;2022-08-07T09:47:02;2.28;;;0.90;;
50549;SDS011;36505;52.512;13.460;2022-08-07T09:49:40;2.60;;;1.38;;
50549;SDS011;36505;52.512;13.460;2022-08-07T09:54:40;2.00;;;1.10;;
50549;SDS011;36505;52.512;13.460;2022-08-07T09:57:21;1.58;;;1.15;;
50549;SDS011;36505;52.512;13.460;2022-08-07T10:00:11;2.35;;;1.13;;
50549;SDS011;36505;52.512;13.460;2022-08-07T10:07:58;2.22;;;1.20;;
50549;SDS011;36505;52.512;13.460;2022-08-07T10:10:39;2.63;;;1.20;;
50549;SDS011;36505;52.512;13.460;2022-08-07T10:18:43;5.03;;;1.17;;
50549;SDS011;36505;52.512;13.460;2022-08-07T10:31:52;5.88;;;1.80;;
50549;SDS011;36505;52.512;13.460;2022-08-07T10:41:08;1.88;;;1.17;;
50549;SDS011;36505;52.512;13.460;2022-08-07T10:43:41;2.33;;;1.00;;
50549;SDS011;36505;52.512;13.460;2022-08-07T10:46:17;2.40;;;0.85;;
50549;SDS011;36505;52.512;13.460;2022-08-07T10:48:54;2.17;;;1.10;;
50549;SDS011;36505;52.512;13.460;2022-08-07T10:54:36;3.58;;;1.15;;
50549;SDS011;36505;52.512;13.460;2022-08-07T10:57:13;2.55;;;1.05;;
50549;SDS011;36505;52.512;13.460;2022-08-07T11:02:23;2.83;;;1.35;;
50549;SDS011;36505;52.512;13.460;2022-08-07T11:07:49;1.88;;;0.82;;
50549;SDS011;36505;52.512;13.460;2022-08-07T11:10:27;7.30;;;0.98;;
50549;SDS011;36505;52.512;13.460;2022-08-07T11:13:01;5.30;;;2.00;;
50549;SDS011;36505;52.512;13.460;2022-08-07T11:15:34;3.75;;;1.10;;
50549;SDS011;36505;52.512;13.460;2022-08-07T11:20:51;1.55;;;0.73;;
50549;SDS011;36505;52.512;13.460;2022-08-07T11:23:44;2.13;;;1.20;;
50549;SDS011;36505;52.512;13.460;2022-08-07T11:26:19;1.30;;;0.90;;
50549;SDS011;36505;52.512;13.460;2022-08-07T11:28:52;2.97;;;1.42;;
50549;SDS011;36505;52.512;13.460;2022-08-07T11:31:28;3.05;;;1.05;;
50549;SDS011;36505;52.512;13.460;2022-08-07T11:34:03;3.33;;;1.17;;
50549;SDS011;36505;52.512;13.460;2022-08-07T11:36:53;2.35;;;1.27;;
50549;SDS011;36505;52.512;13.460;2022-08-07T11:41:58;4.03;;;1.50;;
50549;SDS011;36505;52.512;13.460;2022-08-07T11:44:41;3.53;;;1.10;;
50549;SDS011;36505;52.512;13.460;2022-08-07T11:47:28;1.67;;;0.90;;
50549;SDS011;36505;52.512;13.460;2022-08-07T11:50:43;3.38;;;1.17;;
50549;SDS011;36505;52.512;13.460;2022-08-07T11:53:14;2.55;;;1.02;;
50549;SDS011;36505;52.512;13.460;2022-08-07T11:55:54;2.85;;;1.30;;
50549;SDS011;36505;52.512;13.460;2022-08-07T12:04:33;3.35;;;1.85;;
50549;SDS011;36505;52.512;13.460;2022-08-07T12:07:27;3.80;;;1.40;;
50549;SDS011;36505;52.512;13.460;2022-08-07T12:09:58;2.00;;;1.10;;
50549;SDS011;36505;52.512;13.460;2022-08-07T12:15:26;6.47;;;1.63;;
50549;SDS011;36505;52.512;13.460;2022-08-07T12:18:04;6.15;;;1.10;;
50549;SDS011;36505;52.512;13.460;2022-08-07T12:20:42;8.23;;;1.65;;
50549;SDS011;36505;52.512;13.460;2022-08-07T12:23:18;4.03;;;1.80;;
50549;SDS011;36505;52.512;13.460;2022-08-07T12:26:00;8.38;;;2.00;;
50549;SDS011;36505;52.512;13.460;2022-08-07T12:28:33;3.75;;;1.38;;
50549;SDS011;36505;52.512;13.460;2022-08-07T12:31:10;1.58;;;1.20;;
50549;SDS011;36505;52.512;13.460;2022-08-07T12:33:41;3.25;;;1.33;;
50549;SDS011;36505;52.512;13.460;2022-08-07T12:36:08;2.97;;;1.20;;
50549;SDS011;36505;52.512;13.460;2022-08-07T12:38:35;2.92;;;0.95;;
50549;SDS011;36505;52.512;13.460;2022-08-07T12:41:03;3.05;;;1.45;;
50549;SDS011;36505;52.512;13.460;2022-08-07T12:43:30;4.45;;;1.75;;
50549;SDS011;36505;52.512;13.460;2022-08-07T12:51:27;5.43;;;1.45;;
50549;SDS011;36505;52.512;13.460;2022-08-07T12:56:51;2.17;;;1.00;;
50549;SDS011;36505;52.512;13.460;2022-08-07T12:59:21;4.68;;;1.30;;
50549;SDS011;36505;52.512;13.460;2022-08-07T13:07:14;2.10;;;1.02;;
50549;SDS011;36505;52.512;13.460;2022-08-07T13:13:00;3.67;;;1.10;;
50549;SDS011;36505;52.512;13.460;2022-08-07T13:21:06;2.08;;;1.02;;
50549;SDS011;36505;52.512;13.460;2022-08-07T13:29:19;2.25;;;1.65;;
50549;SDS011;36505;52.512;13.460;2022-08-07T13:40:19;4.57;;;1.05;;
50549;SDS011;36505;52.512;13.460;2022-08-07T13:43:03;2.97;;;0.90;;
50549;SDS011;36505;52.512;13.460;2022-08-07T13:45:33;2.15;;;1.10;;
50549;SDS011;36505;52.512;13.460;2022-08-07T13:48:00;2.00;;;1.20;;
50549;SDS011;36505;52.512;13.460;2022-08-07T13:50:29;4.70;;;1.40;;
50549;SDS011;36505;52.512;13.460;2022-08-07T13:52:56;5.47;;;0.90;;
50549;SDS011;36505;52.512;13.460;2022-08-07T13:55:23;3.17;;;1.10;;
50549;SDS011;36505;52.512;13.460;2022-08-07T13:58:09;2.45;;;1.15;;
50549;SDS011;36505;52.512;13.460;2022-08-07T14:00:56;3.17;;;1.35;;
50549;SDS011;36505;52.512;13.460;2022-08-07T14:03:24;2.03;;;0.93;;
50549;SDS011;36505;52.512;13.460;2022-08-07T14:05:54;2.75;;;1.40;;
50549;SDS011;36505;52.512;13.460;2022-08-07T14:08:23;5.72;;;1.02;;
50549;SDS011;36505;52.512;13.460;2022-08-07T14:10:50;2.22;;;1.17;;
50549;SDS011;36505;52.512;13.460;2022-08-07T14:13:17;1.85;;;0.82;;
50549;SDS011;36505;52.512;13.460;2022-08-07T14:15:52;3.63;;;1.70;;
50549;SDS011;36505;52.512;13.460;2022-08-07T14:18:24;1.58;;;1.15;;
50549;SDS011;36505;52.512;13.460;2022-08-07T14:20:57;2.63;;;1.13;;
50549;SDS011;36505;52.512;13.460;2022-08-07T14:23:28;4.68;;;1.80;;
50549;SDS011;36505;52.512;13.460;2022-08-07T14:25:56;2.70;;;1.00;;
50549;SDS011;36505;52.512;13.460;2022-08-07T14:28:24;3.17;;;1.33;;
50549;SDS011;36505;52.512;13.460;2022-08-07T14:30:52;5.18;;;1.20;;
50549;SDS011;36505;52.512;13.460;2022-08-07T14:33:19;8.30;;;1.20;;
50549;SDS011;36505;52.512;13.460;2022-08-07T14:35:46;5.43;;;1.40;;
50549;SDS011;36505;52.512;13.460;2022-08-07T14:38:13;4.57;;;1.30;;
50549;SDS011;36505;52.512;13.460;2022-08-07T14:40:39;4.00;;;1.33;;
50549;SDS011;36505;52.512;13.460;2022-08-07T14:43:07;1.30;;;1.08;;
50549;SDS011;36505;52.512;13.460;2022-08-07T14:45:53;3.78;;;1.17;;
50549;SDS011;36505;52.512;13.460;2022-08-07T14:48:24;5.85;;;1.60;;
50549;SDS011;36505;52.512;13.460;2022-08-07T14:50:53;3.17;;;1.58;;
50549;SDS011;36505;52.512;13.460;2022-08-07T14:53:20;7.20;;;1.65;;
50549;SDS011;36505;52.512;13.460;2022-08-07T14:55:47;3.33;;;1.25;;
50549;SDS011;36505;52.512;13.460;2022-08-07T14:58:14;2.42;;;1.10;;
50549;SDS011;36505;52.512;13.460;2022-08-07T15:00:42;1.70;;;1.02;;
50549;SDS011;36505;52.512;13.460;2022-08-07T15:03:15;3.78;;;1.58;;
50549;SDS011;36505;52.512;13.460;2022-08-07T15:05:46;6.25;;;3.33;;
50549;SDS011;36505;52.512;13.460;2022-08-07T15:08:13;3.38;;;1.80;;
50549;SDS011;36505;52.512;13.460;2022-08-07T15:10:45;2.60;;;1.60;;
50549;SDS011;36505;52.512;13.460;2022-08-07T15:13:18;7.25;;;1.42;;
50549;SDS011;36505;52.512;13.460;2022-08-07T15:15:47;6.85;;;1.50;;
50549;SDS011;36505;52.512;13.460;2022-08-07T15:18:19;5.88;;;1.50;;
50549;SDS011;36505;52.512;13.460;2022-08-07T15:20:47;5.17;;;1.70;;
50549;SDS011;36505;52.512;13.460;2022-08-07T15:23:18;4.15;;;2.58;;
50549;SDS011;36505;52.512;13.460;2022-08-07T15:25:50;2.72;;;1.40;;
50549;SDS011;36505;52.512;13.460;2022-08-07T15:28:20;2.92;;;1.08;;
50549;SDS011;36505;52.512;13.460;2022-08-07T15:30:48;3.60;;;1.40;;
50549;SDS011;36505;52.512;13.460;2022-08-07T15:33:18;4.70;;;2.00;;
50549;SDS011;36505;52.512;13.460;2022-08-07T15:35:51;3.88;;;2.03;;
50549;SDS011;36505;52.512;13.460;2022-08-07T15:38:18;8.45;;;1.85;;
50549;SDS011;36505;52.512;13.460;2022-08-07T15:40:48;2.85;;;1.50;;
50549;SDS011;36505;52.512;13.460;2022-08-07T15:43:16;3.85;;;1.25;;
50549;SDS011;36505;52.512;13.460;2022-08-07T15:45:45;2.53;;;1.00;;
50549;SDS011;36505;52.512;13.460;2022-08-07T15:50:40;5.72;;;1.30;;
50549;SDS011;36505;52.512;13.460;2022-08-07T15:53:11;3.80;;;1.20;;
50549;SDS011;36505;52.512;13.460;2022-08-07T15:55:41;3.20;;;1.35;;
50549;SDS011;36505;52.512;13.460;2022-08-07T15:58:10;4.30;;;1.40;;
50549;SDS011;36505;52.512;13.460;2022-08-07T16:00:37;3.17;;;1.70;;
50549;SDS011;36505;52.512;13.460;2022-08-07T16:03:05;3.47;;;2.45;;
50549;SDS011;36505;52.512;13.460;2022-08-07T16:05:35;4.20;;;1.90;;
50549;SDS011;36505;52.512;13.460;2022-08-07T16:08:03;5.82;;;2.25;;
50549;SDS011;36505;52.512;13.460;2022-08-07T16:10:33;4.45;;;1.33;;
50549;SDS011;36505;52.512;13.460;2022-08-07T16:16:35;2.47;;;1.75;;
50549;SDS011;36505;52.512;13.460;2022-08-07T16:19:18;2.75;;;1.95;;
50549;SDS011;36505;52.512;13.460;2022-08-07T16:24:38;3.20;;;1.45;;
50549;SDS011;36505;52.512;13.460;2022-08-07T16:27:23;6.00;;;1.02;;
50549;SDS011;36505;52.512;13.460;2022-08-07T16:32:46;6.28;;;1.27;;
50549;SDS011;36505;52.512;13.460;2022-08-07T16:35:24;2.30;;;1.08;;
50549;SDS011;36505;52.512;13.460;2022-08-07T16:51:32;2.85;;;1.42;;
50549;SDS011;36505;52.512;13.460;2022-08-07T16:59:51;3.83;;;1.90;;
50549;SDS011;36505;52.512;13.460;2022-08-07T17:02:39;3.15;;;1.42;;
50549;SDS011;36505;52.512;13.460;2022-08-07T17:07:56;3.92;;;1.83;;
50549;SDS011;36505;52.512;13.460;2022-08-07T17:21:17;5.95;;;1.52;;
50549;SDS011;36505;52.512;13.460;2022-08-07T17:24:02;3.30;;;1.10;;
50549;SDS011;36505;52.512;13.460;2022-08-07T17:26:45;2.95;;;1.50;;
50549;SDS011;36505;52.512;13.460;2022-08-07T17:34:53;2.42;;;1.10;;
50549;SDS011;36505;52.512;13.460;2022-08-07T17:37:45;4.27;;;1.00;;
50549;SDS011;36505;52.512;13.460;2022-08-07T17:40:16;6.72;;;1.48;;
50549;SDS011;36505;52.512;13.460;2022-08-07T17:48:09;2.17;;;1.20;;
50549;SDS011;36505;52.512;13.460;2022-08-07T17:58:55;1.80;;;1.30;;
50549;SDS011;36505;52.512;13.460;2022-08-07T18:01:27;6.95;;;1.70;;
50549;SDS011;36505;52.512;13.460;2022-08-07T18:06:30;4.25;;;1.25;;
50549;SDS011;36505;52.512;13.460;2022-08-07T18:09:02;5.88;;;1.73;;
50549;SDS011;36505;52.512;13.460;2022-08-07T18:11:31;4.25;;;1.77;;
50549;SDS011;36505;52.512;13.460;2022-08-07T18:14:22;4.22;;;1.50;;
50549;SDS011;36505;52.512;13.460;2022-08-07T18:16:58;6.13;;;1.50;;
50549;SDS011;36505;52.512;13.460;2022-08-07T18:19:45;5.95;;;1.60;;
50549;SDS011;36505;52.512;13.460;2022-08-07T18:22:29;9.70;;;1.50;;
50549;SDS011;36505;52.512;13.460;2022-08-07T18:24:57;3.40;;;1.80;;